createdAt,value
2023-06-19T00:01:09.641Z,7.65
2023-06-19T00:03:36.568Z,6.57
2023-06-19T00:06:03.543Z,8.25
2023-06-19T00:08:30.406Z,8.20
2023-06-19T00:10:57.243Z,8.32
2023-06-19T00:13:24.204Z,8.27
2023-06-19T00:15:51.016Z,8.18
2023-06-19T00:18:19.289Z,7.65
2023-06-19T00:20:47.626Z,11.30
2023-06-19T00:23:15.824Z,6.50
2023-06-19T00:25:44.543Z,6.20
2023-06-19T00:28:12.778Z,8.18
2023-06-19T00:30:39.658Z,7.03
2023-06-19T00:33:06.812Z,7.60
2023-06-19T00:35:33.715Z,7.00
2023-06-19T00:38:03.246Z,8.43
2023-06-19T00:40:34.636Z,8.65
2023-06-19T00:43:02.025Z,8.50
2023-06-19T00:45:29.166Z,9.87
2023-06-19T00:47:57.405Z,9.30
2023-06-19T00:50:25.666Z,7.45
2023-06-19T00:52:53.137Z,7.65
2023-06-19T00:55:20.318Z,8.50
2023-06-19T00:57:47.514Z,9.07
2023-06-19T01:00:15.041Z,6.20
2023-06-19T01:02:42.052Z,9.02
2023-06-19T01:05:09.210Z,9.07
2023-06-19T01:07:45.852Z,7.65
2023-06-19T01:10:17.749Z,4.67
2023-06-19T01:12:53.917Z,5.88
2023-06-19T01:15:21.904Z,6.28
2023-06-19T01:17:50.105Z,5.05
2023-06-19T01:20:17.665Z,5.05
2023-06-19T01:22:45.261Z,3.60
2023-06-19T01:25:14.670Z,4.72
2023-06-19T01:27:43.033Z,5.15
2023-06-19T01:30:11.690Z,3.90
2023-06-19T01:32:46.590Z,3.75
2023-06-19T01:35:16.089Z,4.43
2023-06-19T01:37:44.406Z,3.45
2023-06-19T01:40:12.466Z,4.18
2023-06-19T01:42:41.259Z,2.92
2023-06-19T01:45:09.485Z,3.53
2023-06-19T01:47:36.537Z,2.87
2023-06-19T01:50:03.575Z,2.67
2023-06-19T01:52:30.424Z,5.63
2023-06-19T01:54:57.358Z,3.00
2023-06-19T01:57:24.208Z,2.38
2023-06-19T01:59:51.000Z,1.90
2023-06-19T02:02:17.862Z,2.90
2023-06-19T02:04:44.751Z,2.00
2023-06-19T02:07:11.728Z,2.72
2023-06-19T02:09:39.265Z,2.85
2023-06-19T02:12:06.657Z,5.87
2023-06-19T02:14:33.477Z,2.63
2023-06-19T02:17:00.360Z,2.42
2023-06-19T02:19:27.204Z,2.08
2023-06-19T02:21:54.044Z,4.20
2023-06-19T02:24:20.853Z,2.63
2023-06-19T02:26:47.661Z,3.15
2023-06-19T02:29:14.699Z,3.65
2023-06-19T02:31:41.596Z,3.38
2023-06-19T02:34:08.435Z,4.35
2023-06-19T02:36:36.629Z,2.73
2023-06-19T02:39:06.934Z,2.33
2023-06-19T02:41:34.112Z,4.10
2023-06-19T02:44:00.967Z,2.22
2023-06-19T02:46:27.926Z,2.35
2023-06-19T02:48:54.920Z,2.87
2023-06-19T02:51:21.757Z,2.55
2023-06-19T02:53:48.835Z,3.63
2023-06-19T02:56:15.759Z,4.40
2023-06-19T02:58:42.798Z,3.95
2023-06-19T03:01:10.032Z,2.87
2023-06-19T03:03:40.063Z,2.63
2023-06-19T03:06:07.588Z,2.22
2023-06-19T03:08:35.517Z,3.13
2023-06-19T03:11:05.343Z,2.38
2023-06-19T03:13:51.612Z,2.87
2023-06-19T03:16:18.845Z,3.58
2023-06-19T03:18:46.268Z,3.60
2023-06-19T03:21:14.842Z,3.38
2023-06-19T03:23:44.880Z,2.78
2023-06-19T03:26:11.990Z,3.73
2023-06-19T03:28:38.804Z,3.50
2023-06-19T03:31:05.689Z,3.40
2023-06-19T03:33:32.520Z,3.00
2023-06-19T03:35:59.443Z,3.20
2023-06-19T03:38:26.215Z,3.27
2023-06-19T03:40:53.054Z,3.42
2023-06-19T03:43:19.869Z,2.83
2023-06-19T03:45:47.025Z,3.88
2023-06-19T03:48:13.922Z,2.80
2023-06-19T03:50:40.809Z,3.53
2023-06-19T03:53:07.627Z,3.15
2023-06-19T03:55:34.577Z,4.28
2023-06-19T03:58:01.385Z,5.15
2023-06-19T04:00:29.140Z,3.50
2023-06-19T04:02:56.180Z,3.50
2023-06-19T04:05:23.399Z,5.35
2023-06-19T04:07:50.157Z,8.25
2023-06-19T04:10:17.142Z,6.55
2023-06-19T04:12:44.112Z,7.93
2023-06-19T04:15:11.373Z,7.47
2023-06-19T04:17:38.188Z,8.30
2023-06-19T04:20:12.483Z,6.20
2023-06-19T04:22:40.921Z,6.80
2023-06-19T04:25:14.452Z,7.93
2023-06-19T04:27:41.328Z,8.10
2023-06-19T04:30:08.603Z,8.98
2023-06-19T04:32:36.491Z,9.52
2023-06-19T04:35:03.934Z,9.98
2023-06-19T04:37:31.021Z,8.80
2023-06-19T04:39:57.862Z,8.50
2023-06-19T04:42:26.182Z,10.38
2023-06-19T04:44:53.141Z,9.25
2023-06-19T04:47:21.572Z,8.18
2023-06-19T04:49:48.458Z,8.18
2023-06-19T04:52:15.443Z,8.63
2023-06-19T04:54:42.384Z,7.20
2023-06-19T04:57:09.206Z,8.32
2023-06-19T04:59:36.098Z,8.27
2023-06-19T05:02:03.000Z,5.63
2023-06-19T05:04:34.049Z,5.17
2023-06-19T05:07:01.217Z,3.70
2023-06-19T05:09:28.029Z,3.03
2023-06-19T05:11:54.909Z,3.20
2023-06-19T05:14:21.825Z,2.97
2023-06-19T05:16:49.031Z,2.57
2023-06-19T05:19:15.918Z,3.17
2023-06-19T05:21:42.764Z,4.32
2023-06-19T05:24:09.612Z,4.22
2023-06-19T05:26:36.707Z,3.08
2023-06-19T05:29:03.843Z,4.23
2023-06-19T05:31:30.751Z,4.18
2023-06-19T05:33:57.567Z,6.15
2023-06-19T05:36:25.070Z,5.05
2023-06-19T05:38:52.056Z,5.05
2023-06-19T05:41:18.926Z,4.30
2023-06-19T05:43:45.821Z,4.78
2023-06-19T05:46:13.129Z,3.40
2023-06-19T05:48:40.200Z,4.13
2023-06-19T05:51:07.150Z,4.70
2023-06-19T05:53:34.046Z,3.77
2023-06-19T05:56:00.920Z,4.25
2023-06-19T05:58:28.038Z,4.13
2023-06-19T06:00:58.973Z,5.82
2023-06-19T06:03:26.731Z,5.10
2023-06-19T06:05:53.709Z,5.57
2023-06-19T06:08:20.861Z,7.38
2023-06-19T06:10:48.065Z,6.03
2023-06-19T06:13:15.168Z,5.80
2023-06-19T06:15:42.003Z,5.93
2023-06-19T06:18:08.909Z,5.13
2023-06-19T06:20:35.817Z,4.95
2023-06-19T06:23:02.680Z,6.32
2023-06-19T06:25:29.655Z,6.28
2023-06-19T06:27:57.178Z,5.68
2023-06-19T06:30:25.196Z,5.73
2023-06-19T06:32:52.476Z,7.45
2023-06-19T06:35:19.448Z,8.60
2023-06-19T06:37:47.445Z,7.50
2023-06-19T06:40:15.138Z,9.63
2023-06-19T06:42:42.179Z,5.47
2023-06-19T06:45:09.526Z,5.15
2023-06-19T06:47:37.004Z,6.55
2023-06-19T06:50:04.084Z,6.25
2023-06-19T06:52:31.852Z,5.43
2023-06-19T06:54:58.908Z,4.40
2023-06-19T06:57:26.263Z,5.30
2023-06-19T06:59:53.284Z,5.63
2023-06-19T07:02:20.427Z,7.72
2023-06-19T07:04:47.654Z,6.47
2023-06-19T07:07:14.684Z,5.93
2023-06-19T07:09:41.674Z,8.25
2023-06-19T07:12:09.337Z,6.10
2023-06-19T07:14:36.182Z,8.00
2023-06-19T07:17:03.297Z,7.68
2023-06-19T07:19:30.977Z,7.57
2023-06-19T07:21:58.197Z,9.75
2023-06-19T07:24:25.335Z,8.00
2023-06-19T07:26:52.227Z,7.57
2023-06-19T07:29:19.303Z,6.35
2023-06-19T07:31:46.216Z,7.87
2023-06-19T07:34:13.112Z,8.45
2023-06-19T07:36:40.010Z,9.88
2023-06-19T07:39:06.851Z,8.13
2023-06-19T07:41:33.761Z,10.50
2023-06-19T07:44:00.700Z,9.67
2023-06-19T07:46:27.798Z,9.38
2023-06-19T07:48:54.709Z,8.85
2023-06-19T07:51:22.124Z,9.93
2023-06-19T07:53:48.917Z,8.25
2023-06-19T07:56:15.869Z,7.53
2023-06-19T07:58:42.752Z,9.10
2023-06-19T08:01:09.978Z,8.95
2023-06-19T08:03:37.191Z,10.80
2023-06-19T08:06:04.153Z,13.23
2023-06-19T08:08:30.956Z,13.50
2023-06-19T08:10:57.672Z,11.18
2023-06-19T08:13:24.737Z,10.27
2023-06-19T08:15:51.620Z,10.98
2023-06-19T08:18:18.751Z,10.93
2023-06-19T08:20:45.806Z,10.47
2023-06-19T08:23:12.671Z,11.48
2023-06-19T08:25:39.518Z,12.40
2023-06-19T08:28:06.604Z,10.23
2023-06-19T08:30:33.525Z,11.55
2023-06-19T08:33:00.525Z,10.73
2023-06-19T08:35:27.513Z,11.40
2023-06-19T08:37:54.630Z,11.77
2023-06-19T08:40:21.998Z,10.02
2023-06-19T08:42:49.226Z,9.80
2023-06-19T08:45:17.224Z,9.47
2023-06-19T08:47:44.413Z,9.48
2023-06-19T08:50:11.377Z,9.32
2023-06-19T08:52:38.259Z,9.82
2023-06-19T08:55:05.718Z,9.00
2023-06-19T08:57:37.029Z,10.83
2023-06-19T09:00:07.029Z,11.25
2023-06-19T09:02:52.476Z,11.30
2023-06-19T09:05:26.699Z,11.00
2023-06-19T09:08:04.526Z,9.43
2023-06-19T09:10:32.113Z,13.80
2023-06-19T09:13:04.100Z,11.80
2023-06-19T09:15:36.431Z,10.70
2023-06-19T09:18:12.726Z,11.27
2023-06-19T09:20:45.075Z,13.82
2023-06-19T09:23:13.606Z,14.30
2023-06-19T09:25:50.209Z,12.85
2023-06-19T09:28:21.694Z,12.88
2023-06-19T09:31:00.084Z,14.60
2023-06-19T09:33:31.762Z,11.20
2023-06-19T09:36:00.356Z,13.50
2023-06-19T09:38:29.440Z,14.38
2023-06-19T09:40:59.512Z,11.15
2023-06-19T09:43:37.168Z,14.43
2023-06-19T09:46:05.754Z,13.95
2023-06-19T09:48:36.155Z,15.57
2023-06-19T09:51:44.254Z,13.88
2023-06-19T09:54:12.047Z,14.23
2023-06-19T09:56:39.739Z,13.95
2023-06-19T09:59:10.671Z,10.45
2023-06-19T10:01:38.306Z,11.13
2023-06-19T10:04:12.016Z,11.73
2023-06-19T10:06:47.389Z,12.20
2023-06-19T10:09:19.203Z,11.30
2023-06-19T10:11:52.611Z,12.82
2023-06-19T10:14:23.543Z,10.83
2023-06-19T10:16:50.967Z,12.45
2023-06-19T10:19:20.097Z,11.45
2023-06-19T10:21:53.808Z,11.57
2023-06-19T10:24:21.938Z,9.50
2023-06-19T10:27:00.684Z,11.47
2023-06-19T10:29:28.803Z,10.02
2023-06-19T10:31:58.231Z,10.48
2023-06-19T10:34:35.200Z,10.05
2023-06-19T10:37:02.110Z,10.02
2023-06-19T10:39:28.972Z,8.93
2023-06-19T10:41:55.890Z,8.88
2023-06-19T10:44:26.666Z,10.75
2023-06-19T10:46:54.082Z,10.63
2023-06-19T10:49:22.431Z,11.80
2023-06-19T10:51:50.355Z,11.47
2023-06-19T10:54:17.263Z,9.52
2023-06-19T10:56:50.021Z,10.57
2023-06-19T10:59:17.104Z,12.63
2023-06-19T11:01:46.901Z,13.05
2023-06-19T11:04:16.361Z,13.03
2023-06-19T11:06:45.341Z,10.20
2023-06-19T11:09:13.373Z,10.35
2023-06-19T11:11:46.274Z,10.02
2023-06-19T11:14:14.760Z,8.73
2023-06-19T11:16:47.175Z,9.40
2023-06-19T11:19:19.228Z,8.85
2023-06-19T11:21:52.128Z,10.20
2023-06-19T11:24:20.085Z,9.65
2023-06-19T11:26:52.553Z,9.55
2023-06-19T11:29:21.618Z,8.70
2023-06-19T11:31:49.975Z,12.43
2023-06-19T11:34:18.779Z,10.75
2023-06-19T11:36:47.234Z,11.23
2023-06-19T11:39:16.659Z,8.38
2023-06-19T11:41:46.947Z,10.23
2023-06-19T11:44:13.877Z,10.00
2023-06-19T11:46:40.962Z,10.55
2023-06-19T11:49:19.903Z,9.68
2023-06-19T11:51:47.268Z,9.93
2023-06-19T11:54:22.031Z,9.27
2023-06-19T11:56:49.338Z,8.20
2023-06-19T11:59:16.582Z,8.77
2023-06-19T12:01:43.415Z,8.15
2023-06-19T12:04:10.701Z,9.65
2023-06-19T12:06:38.546Z,11.37
2023-06-19T12:09:08.594Z,7.45
2023-06-19T12:11:35.570Z,8.60
2023-06-19T12:14:02.632Z,8.80
2023-06-19T12:16:30.001Z,8.52
2023-06-19T12:18:57.101Z,8.70
2023-06-19T12:21:35.775Z,9.32
2023-06-19T12:24:05.631Z,8.80
2023-06-19T12:26:38.506Z,9.48
2023-06-19T12:29:06.139Z,7.90
2023-06-19T12:31:33.780Z,7.40
2023-06-19T12:34:10.240Z,8.13
2023-06-19T12:36:48.347Z,8.80
2023-06-19T12:39:18.003Z,9.82
2023-06-19T12:41:44.900Z,8.60
2023-06-19T12:44:11.947Z,8.17
2023-06-19T12:46:38.982Z,10.57
2023-06-19T12:49:06.186Z,8.43
2023-06-19T12:51:35.237Z,8.98
2023-06-19T12:54:02.089Z,8.95
2023-06-19T12:56:29.000Z,8.53
2023-06-19T12:58:55.864Z,6.03
2023-06-19T13:01:22.997Z,7.07
2023-06-19T13:03:50.088Z,6.70
2023-06-19T13:06:17.059Z,6.95
2023-06-19T13:08:44.198Z,6.57
2023-06-19T13:11:10.988Z,8.80
2023-06-19T13:13:37.825Z,5.43
2023-06-19T13:16:04.950Z,6.10
2023-06-19T13:18:31.958Z,7.68
2023-06-19T13:20:58.825Z,7.23
2023-06-19T13:23:25.833Z,7.30
2023-06-19T13:25:52.786Z,6.65
2023-06-19T13:28:19.813Z,6.32
2023-06-19T13:30:46.680Z,6.13
2023-06-19T13:33:13.679Z,7.33
2023-06-19T13:35:40.599Z,6.43
2023-06-19T13:38:07.839Z,7.82
2023-06-19T13:40:34.958Z,6.80
2023-06-19T13:43:04.127Z,7.22
2023-06-19T13:45:35.345Z,7.80
2023-06-19T13:48:02.923Z,5.75
2023-06-19T13:50:30.035Z,8.48
2023-06-19T13:52:57.004Z,5.95
2023-06-19T13:55:24.390Z,7.10
2023-06-19T13:57:51.531Z,6.50
2023-06-19T14:00:19.104Z,5.22
2023-06-19T14:02:46.732Z,5.38
2023-06-19T14:05:16.610Z,6.60
2023-06-19T14:07:44.515Z,6.53
2023-06-19T14:10:11.526Z,6.07
2023-06-19T14:12:38.593Z,5.72
2023-06-19T14:15:07.906Z,6.72
2023-06-19T14:17:35.002Z,7.18
2023-06-19T14:20:02.006Z,7.68
2023-06-19T14:22:30.203Z,5.70
2023-06-19T14:25:00.898Z,5.20
2023-06-19T14:27:28.034Z,5.40
2023-06-19T14:29:58.187Z,5.78
2023-06-19T14:32:25.409Z,5.93
2023-06-19T14:34:52.719Z,7.73
2023-06-19T14:37:19.681Z,7.25
2023-06-19T14:39:46.726Z,7.03
2023-06-19T14:42:13.632Z,6.70
2023-06-19T14:44:40.478Z,7.68
2023-06-19T14:47:08.050Z,6.57
2023-06-19T14:49:35.077Z,7.07
2023-06-19T14:52:01.937Z,6.78
2023-06-19T14:54:28.807Z,5.25
2023-06-19T14:56:55.719Z,8.10
2023-06-19T14:59:22.696Z,5.67
2023-06-19T15:01:49.839Z,5.38
2023-06-19T15:04:17.212Z,7.25
2023-06-19T15:06:44.354Z,5.82
2023-06-19T15:09:11.375Z,6.65
2023-06-19T15:11:38.524Z,5.57
2023-06-19T15:14:05.593Z,5.60
2023-06-19T15:16:33.274Z,6.40
2023-06-19T15:19:01.822Z,5.20
2023-06-19T15:21:28.890Z,5.00
2023-06-19T15:23:59.057Z,5.90
2023-06-19T15:26:26.897Z,6.57
2023-06-19T15:28:55.010Z,5.95
2023-06-19T15:31:23.753Z,5.38
2023-06-19T15:33:51.525Z,4.88
2023-06-19T15:36:19.110Z,5.37
2023-06-19T15:38:46.268Z,6.50
2023-06-19T15:41:13.394Z,7.03
2023-06-19T15:43:40.594Z,5.07
2023-06-19T15:46:09.419Z,5.25
2023-06-19T15:48:36.598Z,6.20
2023-06-19T15:51:03.633Z,6.00
2023-06-19T15:53:30.775Z,6.45
2023-06-19T15:55:57.796Z,4.97
2023-06-19T15:58:25.324Z,4.90
2023-06-19T16:00:54.285Z,8.77
2023-06-19T16:03:22.263Z,8.20
2023-06-19T16:08:26.424Z,5.32
2023-06-19T16:10:53.445Z,5.13
2023-06-19T16:13:20.314Z,4.80
2023-06-19T16:15:47.247Z,6.88
2023-06-19T16:18:14.287Z,5.55
2023-06-19T16:20:41.262Z,5.82
2023-06-19T16:23:08.250Z,9.75
2023-06-19T16:25:35.333Z,6.20
2023-06-19T16:28:03.000Z,4.60
2023-06-19T16:30:30.099Z,6.55
2023-06-19T16:32:57.212Z,8.43
2023-06-19T16:35:24.272Z,6.68
2023-06-19T16:37:54.767Z,5.60
2023-06-19T16:40:22.743Z,5.38
2023-06-19T16:42:50.241Z,6.32
2023-06-19T16:45:17.305Z,5.47
2023-06-19T16:47:44.125Z,4.65
2023-06-19T16:50:11.252Z,5.03
2023-06-19T16:52:38.258Z,6.60
2023-06-19T16:55:05.619Z,7.28
2023-06-19T16:57:34.116Z,4.30
2023-06-19T17:00:01.513Z,4.55
2023-06-19T17:02:28.811Z,4.83
2023-06-19T17:04:55.864Z,6.18
2023-06-19T17:07:22.912Z,5.45
2023-06-19T17:09:50.022Z,4.90
2023-06-19T17:12:16.975Z,7.03
2023-06-19T17:14:43.858Z,5.17
2023-06-19T17:17:10.965Z,5.75
2023-06-19T17:19:37.977Z,7.90
2023-06-19T17:22:05.257Z,4.18
2023-06-19T17:24:32.208Z,7.18
2023-06-19T17:26:59.173Z,5.07
2023-06-19T17:29:27.601Z,5.32
2023-06-19T17:31:58.201Z,5.88
2023-06-19T17:34:25.326Z,4.03
2023-06-19T17:36:52.477Z,5.35
2023-06-19T17:39:19.440Z,5.07
2023-06-19T17:41:46.387Z,4.57
2023-06-19T17:44:13.256Z,4.85
2023-06-19T17:46:40.282Z,4.97
2023-06-19T17:49:07.841Z,6.13
2023-06-19T17:51:34.979Z,5.57
2023-06-19T17:54:05.664Z,5.25
2023-06-19T17:56:33.286Z,5.07
2023-06-19T17:59:00.364Z,6.32
2023-06-19T18:01:27.225Z,6.78
2023-06-19T18:03:54.491Z,6.73
2023-06-19T18:06:22.885Z,7.55
2023-06-19T18:08:49.767Z,8.13
2023-06-19T18:11:16.704Z,9.18
2023-06-19T18:13:43.675Z,7.93
2023-06-19T18:16:12.746Z,8.67
2023-06-19T18:18:40.643Z,7.82
2023-06-19T18:21:07.713Z,9.98
2023-06-19T18:23:34.737Z,6.05
2023-06-19T18:26:01.651Z,9.85
2023-06-19T18:28:28.551Z,9.50
2023-06-19T18:30:55.465Z,9.45
2023-06-19T18:33:22.318Z,6.57
2023-06-19T18:35:49.223Z,7.70
2023-06-19T18:38:16.283Z,7.60
2023-06-19T18:40:44.743Z,8.93
2023-06-19T18:43:12.503Z,8.13
2023-06-19T18:45:39.472Z,7.35
2023-06-19T18:48:08.101Z,7.07
2023-06-19T18:50:35.177Z,5.35
2023-06-19T18:53:02.255Z,7.00
2023-06-19T18:55:29.358Z,6.70
2023-06-19T18:57:56.352Z,7.45
2023-06-19T19:00:23.472Z,6.07
2023-06-19T19:02:51.364Z,6.68
2023-06-19T19:05:18.590Z,7.33
2023-06-19T19:07:45.548Z,7.15
2023-06-19T19:10:12.540Z,7.45
2023-06-19T19:12:39.498Z,6.90
2023-06-19T19:15:07.360Z,5.90
2023-06-19T19:17:34.409Z,7.13
2023-06-19T19:20:04.869Z,6.97
2023-06-19T19:22:31.803Z,6.35
2023-06-19T19:24:58.801Z,6.40
2023-06-19T19:27:25.945Z,6.60
2023-06-19T19:29:52.912Z,6.90
2023-06-19T19:32:22.532Z,7.93
2023-06-19T19:34:49.605Z,8.00
2023-06-19T19:37:16.468Z,7.35
2023-06-19T19:39:43.534Z,7.03
2023-06-19T19:42:10.634Z,4.87
2023-06-19T19:44:37.519Z,8.07
2023-06-19T19:47:04.655Z,6.82
2023-06-19T19:49:31.613Z,6.38
2023-06-19T19:51:58.494Z,5.85
2023-06-19T19:54:25.481Z,6.00
2023-06-19T19:56:52.431Z,5.53
2023-06-19T19:59:19.407Z,6.93
2023-06-19T20:01:46.415Z,6.85
2023-06-19T20:04:17.296Z,6.38
2023-06-19T20:06:44.929Z,7.73
2023-06-19T20:09:12.794Z,7.97
2023-06-19T20:11:40.655Z,6.50
2023-06-19T20:14:08.226Z,5.80
2023-06-19T20:16:35.191Z,5.85
2023-06-19T20:19:02.345Z,5.70
2023-06-19T20:21:32.404Z,7.10
2023-06-19T20:23:59.342Z,8.27
2023-06-19T20:26:26.380Z,7.82
2023-06-19T20:28:53.391Z,7.88
2023-06-19T20:31:20.299Z,7.60
2023-06-19T20:33:47.228Z,5.57
2023-06-19T20:36:14.220Z,9.05
2023-06-19T20:38:41.184Z,7.53
2023-06-19T20:41:08.043Z,6.82
2023-06-19T20:43:34.964Z,7.23
2023-06-19T20:46:02.082Z,5.97
2023-06-19T20:48:29.880Z,7.13
2023-06-19T20:50:57.775Z,5.45
2023-06-19T20:53:24.740Z,6.13
2023-06-19T20:55:51.683Z,6.70
2023-06-19T20:58:18.539Z,6.68
2023-06-19T21:00:46.636Z,8.18
2023-06-19T21:03:13.650Z,7.20
2023-06-19T21:05:40.734Z,7.80
2023-06-19T21:08:08.647Z,6.33
2023-06-19T21:10:35.574Z,6.30
2023-06-19T21:13:20.912Z,7.15
2023-06-19T21:15:50.551Z,9.57
2023-06-19T21:18:18.732Z,9.02
2023-06-19T21:20:45.720Z,7.37
2023-06-19T21:23:12.886Z,7.60
2023-06-19T21:25:40.457Z,7.60
2023-06-19T21:28:07.262Z,10.13
2023-06-19T21:30:34.167Z,9.25
2023-06-19T21:33:01.172Z,9.53
2023-06-19T21:35:28.147Z,8.25
2023-06-19T21:37:55.044Z,9.88
2023-06-19T21:40:23.918Z,6.15
2023-06-19T21:42:50.898Z,6.22
2023-06-19T21:45:17.796Z,9.00
2023-06-19T21:47:44.719Z,7.20
2023-06-19T21:50:11.764Z,8.43
2023-06-19T21:52:39.936Z,7.28
2023-06-19T21:55:08.635Z,7.63
2023-06-19T21:57:49.612Z,6.53
2023-06-19T22:00:23.841Z,11.68
2023-06-19T22:02:51.126Z,9.00
2023-06-19T22:05:17.965Z,8.73
2023-06-19T22:07:44.786Z,8.52
2023-06-19T22:10:12.943Z,8.17
2023-06-19T22:12:39.697Z,10.20
2023-06-19T22:15:07.377Z,10.23
2023-06-19T22:17:34.198Z,7.43
2023-06-19T22:20:01.133Z,10.73
2023-06-19T22:22:28.008Z,8.90
2023-06-19T22:24:54.820Z,8.93
2023-06-19T22:27:21.720Z,9.30
2023-06-19T22:29:48.515Z,6.65
2023-06-19T22:32:15.455Z,8.35
2023-06-19T22:34:42.570Z,8.30
2023-06-19T22:37:09.490Z,7.85
2023-06-19T22:39:36.340Z,8.65
2023-06-19T22:42:03.525Z,7.20
2023-06-19T22:44:30.394Z,8.88
2023-06-19T22:46:57.300Z,9.60
2023-06-19T22:49:26.539Z,9.77
2023-06-19T22:51:53.394Z,7.82
2023-06-19T22:54:21.177Z,8.35
2023-06-19T22:56:48.099Z,7.45
2023-06-19T22:59:14.966Z,9.60
2023-06-19T23:01:41.870Z,8.07
2023-06-19T23:04:10.690Z,10.25
2023-06-19T23:06:43.481Z,8.57
2023-06-19T23:09:11.835Z,7.60
2023-06-19T23:11:39.474Z,7.03
2023-06-19T23:14:06.797Z,5.53
2023-06-19T23:16:33.649Z,6.25
2023-06-19T23:19:00.540Z,7.30
2023-06-19T23:21:31.503Z,6.95
2023-06-19T23:23:59.082Z,7.50
2023-06-19T23:26:26.472Z,6.55
2023-06-19T23:28:54.517Z,9.57
2023-06-19T23:31:24.960Z,6.95
2023-06-19T23:33:52.842Z,5.85
2023-06-19T23:36:19.929Z,6.87
2023-06-19T23:38:49.154Z,6.75
2023-06-19T23:41:16.040Z,7.65
2023-06-19T23:43:42.917Z,6.53
2023-06-19T23:46:09.873Z,7.25
2023-06-19T23:48:36.886Z,7.70
2023-06-19T23:51:04.628Z,9.50
2023-06-19T23:53:31.490Z,6.40
2023-06-19T23:55:58.419Z,6.53
2023-06-19T23:58:25.544Z,7.28
